الصفحة الرئيسية
METAR-TAF:

METAR-TAF

مطار :

Raton Municipal Airport (Crews Field)

Raton, نيومكسيكو, الولايات المتحدة

دائرة عرض: 36-44-31N, خط طول: 104-39-28W, ارتفاع: 1935 متر

مراقبة الطقس الحالي

تاريخ ووقت الإصدار 17 دقيقة قبل الساعة 02:53UTC
ريح 7 عقدة من الشمال/الشمال الغربي
درجة الحرارة 10°درجة مئوية
الرطوبة 43%
ضغط 1025 hPa
الرؤية: 16.1 كم
غيوم مفككة على ارتفاع 12000 قدم

METAR: KRTN 230253Z AUTO 34007KT 10SM BKN120 10/M02 A3026 RMK AO2 SLP208 T01001017 51016

زمن: 21:10 (03:10 UTC)


TAF: مفقودة

أرصاد الطقس والتوقعات من أكثر من 4000 مطار (تقارير الطقس للمطار METAR والتنبؤ بالطقس بالمطارTAF).

المحطات المتاحة هي النقط الصفراء والحمراء على الخريطة.

حرك المؤشر فوق النقطة لمعرفة اسم المحطة.

ثم انقر لمعرفة أرصاد وتوقعات الطقس.

لتغيير الخارطة: اضغط على الأزرار الخضراء مع رمز الصليب الأسود للتكبير. على الزر الأخضر مع شرطة للتصغير، أو على الأسهم الخضراء للخرائط المجاورة.


METAR-TAF: